sensor_id;sensor_type;location;lat;lon;timestamp;P1;durP1;ratioP1;P2;durP2;ratioP2
24650;SDS011;12783;48.824;8.662;2024-03-08T00:00:45;35.90;;;16.35;;
24650;SDS011;12783;48.824;8.662;2024-03-08T00:03:11;40.50;;;17.08;;
24650;SDS011;12783;48.824;8.662;2024-03-08T00:05:38;39.33;;;15.73;;
24650;SDS011;12783;48.824;8.662;2024-03-08T00:08:05;34.50;;;17.13;;
24650;SDS011;12783;48.824;8.662;2024-03-08T00:10:36;37.60;;;16.60;;
24650;SDS011;12783;48.824;8.662;2024-03-08T00:13:05;35.85;;;16.80;;
24650;SDS011;12783;48.824;8.662;2024-03-08T00:15:32;33.72;;;16.08;;
24650;SDS011;12783;48.824;8.662;2024-03-08T00:17:59;42.35;;;17.45;;
24650;SDS011;12783;48.824;8.662;2024-03-08T00:20:26;33.33;;;16.70;;
24650;SDS011;12783;48.824;8.662;2024-03-08T00:22:53;36.92;;;17.02;;
24650;SDS011;12783;48.824;8.662;2024-03-08T00:25:20;38.83;;;17.20;;
24650;SDS011;12783;48.824;8.662;2024-03-08T00:27:47;32.00;;;15.70;;
24650;SDS011;12783;48.824;8.662;2024-03-08T00:30:16;35.97;;;16.15;;
24650;SDS011;12783;48.824;8.662;2024-03-08T00:32:43;31.73;;;15.40;;
24650;SDS011;12783;48.824;8.662;2024-03-08T00:35:10;35.13;;;16.13;;
24650;SDS011;12783;48.824;8.662;2024-03-08T00:37:38;34.78;;;16.10;;
24650;SDS011;12783;48.824;8.662;2024-03-08T00:40:05;36.20;;;15.63;;
24650;SDS011;12783;48.824;8.662;2024-03-08T00:42:35;35.20;;;16.08;;
24650;SDS011;12783;48.824;8.662;2024-03-08T00:45:02;33.97;;;16.45;;
24650;SDS011;12783;48.824;8.662;2024-03-08T00:47:29;35.20;;;15.95;;
24650;SDS011;12783;48.824;8.662;2024-03-08T00:49:56;39.25;;;17.42;;
24650;SDS011;12783;48.824;8.662;2024-03-08T00:52:23;35.60;;;17.02;;
24650;SDS011;12783;48.824;8.662;2024-03-08T00:54:53;36.17;;;16.23;;
24650;SDS011;12783;48.824;8.662;2024-03-08T00:57:21;33.97;;;15.48;;
24650;SDS011;12783;48.824;8.662;2024-03-08T00:59:48;37.63;;;16.02;;
24650;SDS011;12783;48.824;8.662;2024-03-08T01:02:15;35.78;;;15.50;;
24650;SDS011;12783;48.824;8.662;2024-03-08T01:04:45;35.72;;;16.38;;
24650;SDS011;12783;48.824;8.662;2024-03-08T01:07:13;39.92;;;15.23;;
24650;SDS011;12783;48.824;8.662;2024-03-08T01:09:40;37.22;;;16.52;;
24650;SDS011;12783;48.824;8.662;2024-03-08T01:12:07;37.47;;;15.93;;
24650;SDS011;12783;48.824;8.662;2024-03-08T01:14:33;35.45;;;14.98;;
24650;SDS011;12783;48.824;8.662;2024-03-08T01:17:00;34.85;;;15.90;;
24650;SDS011;12783;48.824;8.662;2024-03-08T01:19:27;34.42;;;15.50;;
24650;SDS011;12783;48.824;8.662;2024-03-08T01:21:54;34.17;;;16.02;;
24650;SDS011;12783;48.824;8.662;2024-03-08T01:24:23;33.58;;;15.40;;
24650;SDS011;12783;48.824;8.662;2024-03-08T01:26:51;38.50;;;16.92;;
24650;SDS011;12783;48.824;8.662;2024-03-08T01:29:18;32.95;;;16.23;;
24650;SDS011;12783;48.824;8.662;2024-03-08T01:31:45;37.70;;;15.73;;
24650;SDS011;12783;48.824;8.662;2024-03-08T01:34:11;31.60;;;14.95;;
24650;SDS011;12783;48.824;8.662;2024-03-08T01:36:38;39.50;;;15.68;;
24650;SDS011;12783;48.824;8.662;2024-03-08T01:39:05;33.30;;;15.57;;
24650;SDS011;12783;48.824;8.662;2024-03-08T01:41:34;34.45;;;15.25;;
24650;SDS011;12783;48.824;8.662;2024-03-08T01:44:02;36.75;;;15.45;;
24650;SDS011;12783;48.824;8.662;2024-03-08T01:46:31;35.22;;;14.88;;
24650;SDS011;12783;48.824;8.662;2024-03-08T01:48:58;30.23;;;15.02;;
24650;SDS011;12783;48.824;8.662;2024-03-08T01:51:27;29.60;;;14.25;;
24650;SDS011;12783;48.824;8.662;2024-03-08T01:53:54;37.00;;;15.93;;
24650;SDS011;12783;48.824;8.662;2024-03-08T01:56:22;37.45;;;16.42;;
24650;SDS011;12783;48.824;8.662;2024-03-08T01:58:49;36.05;;;15.27;;
24650;SDS011;12783;48.824;8.662;2024-03-08T02:01:16;36.13;;;15.90;;
24650;SDS011;12783;48.824;8.662;2024-03-08T02:03:43;35.70;;;16.30;;
24650;SDS011;12783;48.824;8.662;2024-03-08T02:06:11;34.72;;;14.13;;
24650;SDS011;12783;48.824;8.662;2024-03-08T02:08:41;34.40;;;15.23;;
24650;SDS011;12783;48.824;8.662;2024-03-08T02:11:13;32.83;;;14.98;;
24650;SDS011;12783;48.824;8.662;2024-03-08T02:13:40;33.63;;;14.85;;
24650;SDS011;12783;48.824;8.662;2024-03-08T02:16:07;34.90;;;15.23;;
24650;SDS011;12783;48.824;8.662;2024-03-08T02:18:35;31.58;;;15.02;;
24650;SDS011;12783;48.824;8.662;2024-03-08T02:21:03;35.40;;;15.40;;
24650;SDS011;12783;48.824;8.662;2024-03-08T02:23:31;36.33;;;16.13;;
24650;SDS011;12783;48.824;8.662;2024-03-08T02:25:58;31.23;;;14.75;;
24650;SDS011;12783;48.824;8.662;2024-03-08T02:28:26;34.03;;;14.77;;
24650;SDS011;12783;48.824;8.662;2024-03-08T02:30:52;39.38;;;15.30;;
24650;SDS011;12783;48.824;8.662;2024-03-08T02:33:24;33.45;;;15.18;;
24650;SDS011;12783;48.824;8.662;2024-03-08T02:35:54;37.85;;;15.43;;
24650;SDS011;12783;48.824;8.662;2024-03-08T02:38:22;34.85;;;14.88;;
24650;SDS011;12783;48.824;8.662;2024-03-08T02:40:51;34.03;;;14.68;;
24650;SDS011;12783;48.824;8.662;2024-03-08T02:43:19;36.20;;;15.48;;
24650;SDS011;12783;48.824;8.662;2024-03-08T02:45:48;34.60;;;14.27;;
24650;SDS011;12783;48.824;8.662;2024-03-08T02:48:16;29.95;;;15.05;;
24650;SDS011;12783;48.824;8.662;2024-03-08T02:50:43;34.72;;;16.25;;
24650;SDS011;12783;48.824;8.662;2024-03-08T02:53:11;27.48;;;13.88;;
24650;SDS011;12783;48.824;8.662;2024-03-08T02:55:39;29.70;;;14.65;;
24650;SDS011;12783;48.824;8.662;2024-03-08T02:58:08;32.85;;;15.35;;
24650;SDS011;12783;48.824;8.662;2024-03-08T03:00:36;31.33;;;14.25;;
24650;SDS011;12783;48.824;8.662;2024-03-08T03:03:05;39.38;;;15.00;;
24650;SDS011;12783;48.824;8.662;2024-03-08T03:05:33;36.10;;;15.27;;
24650;SDS011;12783;48.824;8.662;2024-03-08T03:08:02;32.70;;;15.73;;
24650;SDS011;12783;48.824;8.662;2024-03-08T03:10:35;37.72;;;15.27;;
24650;SDS011;12783;48.824;8.662;2024-03-08T03:13:02;31.83;;;14.80;;
24650;SDS011;12783;48.824;8.662;2024-03-08T03:15:30;33.65;;;14.35;;
24650;SDS011;12783;48.824;8.662;2024-03-08T03:17:57;35.42;;;15.45;;
24650;SDS011;12783;48.824;8.662;2024-03-08T03:20:24;35.38;;;14.43;;
24650;SDS011;12783;48.824;8.662;2024-03-08T03:25:28;36.72;;;14.82;;
24650;SDS011;12783;48.824;8.662;2024-03-08T03:28:03;31.30;;;14.73;;
24650;SDS011;12783;48.824;8.662;2024-03-08T03:30:30;35.05;;;14.82;;
24650;SDS011;12783;48.824;8.662;2024-03-08T03:33:00;31.88;;;14.50;;
24650;SDS011;12783;48.824;8.662;2024-03-08T03:35:27;33.13;;;15.60;;
24650;SDS011;12783;48.824;8.662;2024-03-08T03:37:55;32.00;;;14.10;;
24650;SDS011;12783;48.824;8.662;2024-03-08T03:40:37;31.83;;;14.27;;
24650;SDS011;12783;48.824;8.662;2024-03-08T03:43:05;31.27;;;14.43;;
24650;SDS011;12783;48.824;8.662;2024-03-08T03:45:32;34.97;;;15.18;;
24650;SDS011;12783;48.824;8.662;2024-03-08T03:48:06;35.63;;;14.90;;
24650;SDS011;12783;48.824;8.662;2024-03-08T03:50:37;36.78;;;14.43;;
24650;SDS011;12783;48.824;8.662;2024-03-08T03:53:05;28.55;;;13.43;;
24650;SDS011;12783;48.824;8.662;2024-03-08T03:55:37;29.88;;;13.00;;
24650;SDS011;12783;48.824;8.662;2024-03-08T03:58:06;31.65;;;14.80;;
24650;SDS011;12783;48.824;8.662;2024-03-08T04:00:34;31.98;;;13.95;;
24650;SDS011;12783;48.824;8.662;2024-03-08T04:03:00;28.40;;;14.55;;
24650;SDS011;12783;48.824;8.662;2024-03-08T04:05:27;34.20;;;14.40;;
24650;SDS011;12783;48.824;8.662;2024-03-08T04:07:55;31.00;;;14.50;;
24650;SDS011;12783;48.824;8.662;2024-03-08T04:10:21;31.63;;;14.23;;
24650;SDS011;12783;48.824;8.662;2024-03-08T04:12:48;35.97;;;14.07;;
24650;SDS011;12783;48.824;8.662;2024-03-08T04:15:15;33.95;;;15.07;;
24650;SDS011;12783;48.824;8.662;2024-03-08T04:17:42;27.23;;;12.45;;
24650;SDS011;12783;48.824;8.662;2024-03-08T04:20:09;31.48;;;13.93;;
24650;SDS011;12783;48.824;8.662;2024-03-08T04:22:37;29.10;;;13.57;;
24650;SDS011;12783;48.824;8.662;2024-03-08T04:25:05;31.65;;;13.70;;
24650;SDS011;12783;48.824;8.662;2024-03-08T04:27:33;30.13;;;13.20;;
24650;SDS011;12783;48.824;8.662;2024-03-08T04:30:00;32.95;;;14.57;;
24650;SDS011;12783;48.824;8.662;2024-03-08T04:32:32;30.65;;;13.82;;
24650;SDS011;12783;48.824;8.662;2024-03-08T04:35:00;32.15;;;14.15;;
24650;SDS011;12783;48.824;8.662;2024-03-08T04:37:30;36.90;;;14.45;;
24650;SDS011;12783;48.824;8.662;2024-03-08T04:39:57;33.13;;;13.57;;
24650;SDS011;12783;48.824;8.662;2024-03-08T04:42:25;29.75;;;13.77;;
24650;SDS011;12783;48.824;8.662;2024-03-08T04:44:53;31.08;;;14.05;;
24650;SDS011;12783;48.824;8.662;2024-03-08T04:47:20;37.08;;;14.00;;
24650;SDS011;12783;48.824;8.662;2024-03-08T04:49:47;29.98;;;13.75;;
24650;SDS011;12783;48.824;8.662;2024-03-08T04:52:14;27.48;;;12.98;;
24650;SDS011;12783;48.824;8.662;2024-03-08T04:54:41;32.35;;;14.18;;
24650;SDS011;12783;48.824;8.662;2024-03-08T04:57:09;33.17;;;14.57;;
24650;SDS011;12783;48.824;8.662;2024-03-08T04:59:37;31.33;;;13.90;;
24650;SDS011;12783;48.824;8.662;2024-03-08T05:02:03;37.30;;;14.85;;
24650;SDS011;12783;48.824;8.662;2024-03-08T05:04:30;34.75;;;14.15;;
24650;SDS011;12783;48.824;8.662;2024-03-08T05:06:57;34.22;;;14.07;;
24650;SDS011;12783;48.824;8.662;2024-03-08T05:09:27;29.48;;;13.57;;
24650;SDS011;12783;48.824;8.662;2024-03-08T05:11:57;37.58;;;14.98;;
24650;SDS011;12783;48.824;8.662;2024-03-08T05:14:26;34.15;;;14.75;;
24650;SDS011;12783;48.824;8.662;2024-03-08T05:16:53;31.30;;;14.43;;
24650;SDS011;12783;48.824;8.662;2024-03-08T05:19:20;32.58;;;14.40;;
24650;SDS011;12783;48.824;8.662;2024-03-08T05:21:48;34.38;;;14.45;;
24650;SDS011;12783;48.824;8.662;2024-03-08T05:24:15;32.00;;;14.98;;
24650;SDS011;12783;48.824;8.662;2024-03-08T05:26:44;37.08;;;14.93;;
24650;SDS011;12783;48.824;8.662;2024-03-08T05:29:12;30.73;;;13.95;;
24650;SDS011;12783;48.824;8.662;2024-03-08T05:31:45;36.30;;;14.82;;
24650;SDS011;12783;48.824;8.662;2024-03-08T05:34:16;32.55;;;14.80;;
24650;SDS011;12783;48.824;8.662;2024-03-08T05:36:43;32.35;;;14.90;;
24650;SDS011;12783;48.824;8.662;2024-03-08T05:39:17;37.97;;;15.43;;
24650;SDS011;12783;48.824;8.662;2024-03-08T05:41:46;34.75;;;15.55;;
24650;SDS011;12783;48.824;8.662;2024-03-08T05:44:14;36.80;;;15.27;;
24650;SDS011;12783;48.824;8.662;2024-03-08T05:46:44;38.92;;;15.85;;
24650;SDS011;12783;48.824;8.662;2024-03-08T05:49:13;34.00;;;14.27;;
24650;SDS011;12783;48.824;8.662;2024-03-08T05:51:40;36.10;;;14.82;;
24650;SDS011;12783;48.824;8.662;2024-03-08T05:54:08;35.20;;;15.45;;
24650;SDS011;12783;48.824;8.662;2024-03-08T05:56:37;31.38;;;14.52;;
24650;SDS011;12783;48.824;8.662;2024-03-08T05:59:05;32.63;;;15.55;;
24650;SDS011;12783;48.824;8.662;2024-03-08T06:01:31;31.63;;;14.30;;
24650;SDS011;12783;48.824;8.662;2024-03-08T06:03:59;37.10;;;14.85;;
24650;SDS011;12783;48.824;8.662;2024-03-08T06:06:26;35.28;;;14.15;;
24650;SDS011;12783;48.824;8.662;2024-03-08T06:08:52;35.63;;;14.98;;
24650;SDS011;12783;48.824;8.662;2024-03-08T06:11:20;33.53;;;14.45;;
24650;SDS011;12783;48.824;8.662;2024-03-08T06:13:47;32.83;;;14.88;;
24650;SDS011;12783;48.824;8.662;2024-03-08T06:16:15;32.58;;;14.50;;
24650;SDS011;12783;48.824;8.662;2024-03-08T06:18:42;32.10;;;14.13;;
24650;SDS011;12783;48.824;8.662;2024-03-08T06:21:09;35.67;;;14.63;;
24650;SDS011;12783;48.824;8.662;2024-03-08T06:23:39;34.92;;;15.45;;
24650;SDS011;12783;48.824;8.662;2024-03-08T06:26:06;34.38;;;14.20;;
24650;SDS011;12783;48.824;8.662;2024-03-08T06:28:33;33.97;;;14.43;;
24650;SDS011;12783;48.824;8.662;2024-03-08T06:31:03;34.40;;;14.70;;
24650;SDS011;12783;48.824;8.662;2024-03-08T06:33:30;32.30;;;14.05;;
24650;SDS011;12783;48.824;8.662;2024-03-08T06:35:59;30.92;;;14.15;;
24650;SDS011;12783;48.824;8.662;2024-03-08T06:38:26;33.20;;;15.13;;
24650;SDS011;12783;48.824;8.662;2024-03-08T06:40:53;34.22;;;14.38;;
24650;SDS011;12783;48.824;8.662;2024-03-08T06:43:21;37.17;;;14.80;;
24650;SDS011;12783;48.824;8.662;2024-03-08T06:45:48;37.22;;;15.93;;
24650;SDS011;12783;48.824;8.662;2024-03-08T06:48:16;36.38;;;15.00;;
24650;SDS011;12783;48.824;8.662;2024-03-08T06:50:46;33.20;;;14.52;;
24650;SDS011;12783;48.824;8.662;2024-03-08T06:53:14;34.88;;;15.80;;
24650;SDS011;12783;48.824;8.662;2024-03-08T06:55:44;33.40;;;15.10;;
24650;SDS011;12783;48.824;8.662;2024-03-08T06:58:11;37.22;;;15.48;;
24650;SDS011;12783;48.824;8.662;2024-03-08T07:00:38;34.85;;;15.52;;
24650;SDS011;12783;48.824;8.662;2024-03-08T07:03:08;35.95;;;15.60;;
24650;SDS011;12783;48.824;8.662;2024-03-08T07:05:38;33.95;;;15.23;;
24650;SDS011;12783;48.824;8.662;2024-03-08T07:08:06;38.03;;;15.85;;
24650;SDS011;12783;48.824;8.662;2024-03-08T07:10:33;36.25;;;15.52;;
24650;SDS011;12783;48.824;8.662;2024-03-08T07:13:01;32.72;;;14.35;;
24650;SDS011;12783;48.824;8.662;2024-03-08T07:15:28;38.70;;;15.90;;
24650;SDS011;12783;48.824;8.662;2024-03-08T07:17:55;36.10;;;15.32;;
24650;SDS011;12783;48.824;8.662;2024-03-08T07:20:22;37.17;;;15.93;;
24650;SDS011;12783;48.824;8.662;2024-03-08T07:22:48;35.75;;;14.10;;
24650;SDS011;12783;48.824;8.662;2024-03-08T07:25:19;39.60;;;15.35;;
24650;SDS011;12783;48.824;8.662;2024-03-08T07:27:51;35.25;;;14.82;;
24650;SDS011;12783;48.824;8.662;2024-03-08T07:30:21;34.03;;;14.88;;
24650;SDS011;12783;48.824;8.662;2024-03-08T07:33:21;33.42;;;14.95;;
24650;SDS011;12783;48.824;8.662;2024-03-08T07:35:49;36.05;;;14.65;;
24650;SDS011;12783;48.824;8.662;2024-03-08T07:38:16;32.03;;;15.35;;
24650;SDS011;12783;48.824;8.662;2024-03-08T07:40:43;33.67;;;14.57;;
24650;SDS011;12783;48.824;8.662;2024-03-08T07:43:11;35.45;;;15.02;;
24650;SDS011;12783;48.824;8.662;2024-03-08T07:45:38;36.22;;;14.32;;
24650;SDS011;12783;48.824;8.662;2024-03-08T07:48:05;35.00;;;14.93;;
24650;SDS011;12783;48.824;8.662;2024-03-08T07:50:37;36.78;;;15.27;;
24650;SDS011;12783;48.824;8.662;2024-03-08T07:53:08;30.50;;;14.38;;
24650;SDS011;12783;48.824;8.662;2024-03-08T07:55:36;32.10;;;14.40;;
24650;SDS011;12783;48.824;8.662;2024-03-08T07:58:03;33.53;;;15.05;;
24650;SDS011;12783;48.824;8.662;2024-03-08T08:00:30;32.45;;;13.40;;
24650;SDS011;12783;48.824;8.662;2024-03-08T08:03:00;36.83;;;14.98;;
24650;SDS011;12783;48.824;8.662;2024-03-08T08:05:27;33.63;;;15.38;;
24650;SDS011;12783;48.824;8.662;2024-03-08T08:07:54;30.15;;;14.45;;
24650;SDS011;12783;48.824;8.662;2024-03-08T08:10:22;33.60;;;15.23;;
24650;SDS011;12783;48.824;8.662;2024-03-08T08:12:52;38.97;;;15.95;;
24650;SDS011;12783;48.824;8.662;2024-03-08T08:15:19;34.60;;;15.13;;
24650;SDS011;12783;48.824;8.662;2024-03-08T08:17:46;33.72;;;13.57;;
24650;SDS011;12783;48.824;8.662;2024-03-08T08:20:18;33.17;;;13.93;;
24650;SDS011;12783;48.824;8.662;2024-03-08T08:22:45;35.50;;;15.25;;
24650;SDS011;12783;48.824;8.662;2024-03-08T08:25:13;34.70;;;14.50;;
24650;SDS011;12783;48.824;8.662;2024-03-08T08:27:47;39.60;;;14.57;;
24650;SDS011;12783;48.824;8.662;2024-03-08T08:33:09;31.70;;;13.82;;
24650;SDS011;12783;48.824;8.662;2024-03-08T08:35:37;38.25;;;15.35;;
24650;SDS011;12783;48.824;8.662;2024-03-08T08:38:06;30.05;;;14.10;;
24650;SDS011;12783;48.824;8.662;2024-03-08T08:40:36;30.30;;;13.48;;
24650;SDS011;12783;48.824;8.662;2024-03-08T08:43:03;35.65;;;14.15;;
24650;SDS011;12783;48.824;8.662;2024-03-08T08:45:31;30.67;;;14.40;;
24650;SDS011;12783;48.824;8.662;2024-03-08T08:47:57;35.17;;;15.02;;
24650;SDS011;12783;48.824;8.662;2024-03-08T08:50:26;30.52;;;13.90;;
24650;SDS011;12783;48.824;8.662;2024-03-08T08:52:54;32.30;;;14.50;;
24650;SDS011;12783;48.824;8.662;2024-03-08T08:55:22;33.75;;;13.70;;
24650;SDS011;12783;48.824;8.662;2024-03-08T08:57:53;31.60;;;14.00;;
24650;SDS011;12783;48.824;8.662;2024-03-08T09:00:20;29.65;;;13.23;;
24650;SDS011;12783;48.824;8.662;2024-03-08T09:02:47;27.55;;;12.93;;
24650;SDS011;12783;48.824;8.662;2024-03-08T09:05:15;33.30;;;14.65;;
24650;SDS011;12783;48.824;8.662;2024-03-08T09:07:44;30.77;;;14.10;;
24650;SDS011;12783;48.824;8.662;2024-03-08T09:10:11;30.67;;;14.48;;
24650;SDS011;12783;48.824;8.662;2024-03-08T09:12:43;34.65;;;15.13;;
24650;SDS011;12783;48.824;8.662;2024-03-08T09:15:11;30.00;;;13.02;;
24650;SDS011;12783;48.824;8.662;2024-03-08T09:17:38;26.88;;;13.15;;
24650;SDS011;12783;48.824;8.662;2024-03-08T09:20:09;31.95;;;13.45;;
24650;SDS011;12783;48.824;8.662;2024-03-08T09:22:37;29.60;;;13.57;;
24650;SDS011;12783;48.824;8.662;2024-03-08T09:25:04;29.10;;;14.15;;
24650;SDS011;12783;48.824;8.662;2024-03-08T09:27:31;30.98;;;14.18;;
24650;SDS011;12783;48.824;8.662;2024-03-08T09:29:58;30.80;;;14.00;;
24650;SDS011;12783;48.824;8.662;2024-03-08T09:32:25;34.17;;;14.45;;
24650;SDS011;12783;48.824;8.662;2024-03-08T09:34:53;29.80;;;13.82;;
24650;SDS011;12783;48.824;8.662;2024-03-08T09:37:20;27.52;;;13.30;;
24650;SDS011;12783;48.824;8.662;2024-03-08T09:39:46;30.08;;;13.90;;
24650;SDS011;12783;48.824;8.662;2024-03-08T09:42:15;29.05;;;13.50;;
24650;SDS011;12783;48.824;8.662;2024-03-08T09:44:46;31.58;;;13.57;;
24650;SDS011;12783;48.824;8.662;2024-03-08T09:47:13;32.60;;;13.70;;
24650;SDS011;12783;48.824;8.662;2024-03-08T09:49:41;34.90;;;14.57;;
24650;SDS011;12783;48.824;8.662;2024-03-08T09:52:08;27.35;;;13.27;;
24650;SDS011;12783;48.824;8.662;2024-03-08T09:54:36;34.50;;;14.55;;
24650;SDS011;12783;48.824;8.662;2024-03-08T09:57:03;26.63;;;13.43;;
24650;SDS011;12783;48.824;8.662;2024-03-08T09:59:30;31.98;;;13.95;;
24650;SDS011;12783;48.824;8.662;2024-03-08T10:02:12;32.25;;;13.73;;
24650;SDS011;12783;48.824;8.662;2024-03-08T10:04:41;32.63;;;13.48;;
24650;SDS011;12783;48.824;8.662;2024-03-08T10:07:09;25.48;;;12.68;;
24650;SDS011;12783;48.824;8.662;2024-03-08T10:09:35;32.75;;;13.93;;
24650;SDS011;12783;48.824;8.662;2024-03-08T10:12:02;31.20;;;13.50;;
24650;SDS011;12783;48.824;8.662;2024-03-08T10:14:29;27.10;;;13.18;;
24650;SDS011;12783;48.824;8.662;2024-03-08T10:16:57;27.95;;;13.18;;
24650;SDS011;12783;48.824;8.662;2024-03-08T10:19:27;31.80;;;13.82;;
24650;SDS011;12783;48.824;8.662;2024-03-08T10:21:57;26.67;;;12.25;;
24650;SDS011;12783;48.824;8.662;2024-03-08T10:24:25;27.63;;;12.70;;
24650;SDS011;12783;48.824;8.662;2024-03-08T10:26:59;30.13;;;14.13;;
24650;SDS011;12783;48.824;8.662;2024-03-08T10:29:28;28.98;;;12.70;;
24650;SDS011;12783;48.824;8.662;2024-03-08T10:31:55;31.45;;;13.32;;
24650;SDS011;12783;48.824;8.662;2024-03-08T10:34:22;29.05;;;12.65;;
24650;SDS011;12783;48.824;8.662;2024-03-08T10:36:50;28.17;;;12.40;;
24650;SDS011;12783;48.824;8.662;2024-03-08T10:39:21;31.00;;;13.25;;
24650;SDS011;12783;48.824;8.662;2024-03-08T10:41:56;27.60;;;13.05;;
24650;SDS011;12783;48.824;8.662;2024-03-08T10:44:38;28.67;;;12.90;;
24650;SDS011;12783;48.824;8.662;2024-03-08T10:47:19;27.60;;;12.70;;
24650;SDS011;12783;48.824;8.662;2024-03-08T10:50:06;26.85;;;11.85;;
24650;SDS011;12783;48.824;8.662;2024-03-08T10:52:49;28.33;;;13.50;;
24650;SDS011;12783;48.824;8.662;2024-03-08T10:55:17;31.30;;;13.35;;
24650;SDS011;12783;48.824;8.662;2024-03-08T10:57:47;28.58;;;13.35;;
24650;SDS011;12783;48.824;8.662;2024-03-08T11:00:14;28.67;;;12.80;;
24650;SDS011;12783;48.824;8.662;2024-03-08T11:02:45;26.02;;;12.13;;
24650;SDS011;12783;48.824;8.662;2024-03-08T11:05:31;32.78;;;14.07;;
24650;SDS011;12783;48.824;8.662;2024-03-08T11:08:02;25.60;;;12.18;;
24650;SDS011;12783;48.824;8.662;2024-03-08T11:10:30;23.23;;;11.60;;
24650;SDS011;12783;48.824;8.662;2024-03-08T11:12:57;27.90;;;12.18;;
24650;SDS011;12783;48.824;8.662;2024-03-08T11:15:24;26.38;;;12.82;;
24650;SDS011;12783;48.824;8.662;2024-03-08T11:17:51;27.08;;;13.27;;
24650;SDS011;12783;48.824;8.662;2024-03-08T11:20:23;23.85;;;11.55;;
24650;SDS011;12783;48.824;8.662;2024-03-08T11:22:51;30.13;;;12.43;;
24650;SDS011;12783;48.824;8.662;2024-03-08T11:25:32;23.05;;;11.73;;
24650;SDS011;12783;48.824;8.662;2024-03-08T11:30:46;26.73;;;11.80;;
24650;SDS011;12783;48.824;8.662;2024-03-08T11:33:27;23.92;;;11.35;;
24650;SDS011;12783;48.824;8.662;2024-03-08T11:38:41;23.45;;;11.35;;
24650;SDS011;12783;48.824;8.662;2024-03-08T11:41:13;25.75;;;12.50;;
24650;SDS011;12783;48.824;8.662;2024-03-08T11:43:47;23.27;;;12.00;;
24650;SDS011;12783;48.824;8.662;2024-03-08T11:46:16;22.48;;;10.60;;
24650;SDS011;12783;48.824;8.662;2024-03-08T11:48:44;23.25;;;11.43;;
24650;SDS011;12783;48.824;8.662;2024-03-08T11:51:14;26.50;;;11.63;;
24650;SDS011;12783;48.824;8.662;2024-03-08T11:53:41;24.27;;;12.05;;
24650;SDS011;12783;48.824;8.662;2024-03-08T11:56:13;27.08;;;12.60;;
24650;SDS011;12783;48.824;8.662;2024-03-08T11:58:40;23.98;;;12.25;;
24650;SDS011;12783;48.824;8.662;2024-03-08T12:01:09;29.17;;;13.00;;
24650;SDS011;12783;48.824;8.662;2024-03-08T12:03:41;26.30;;;12.27;;
24650;SDS011;12783;48.824;8.662;2024-03-08T12:06:10;21.13;;;11.48;;
24650;SDS011;12783;48.824;8.662;2024-03-08T12:08:39;21.77;;;10.95;;
24650;SDS011;12783;48.824;8.662;2024-03-08T12:11:06;19.17;;;11.38;;
24650;SDS011;12783;48.824;8.662;2024-03-08T12:13:36;25.60;;;11.50;;
24650;SDS011;12783;48.824;8.662;2024-03-08T12:16:03;21.88;;;11.50;;
24650;SDS011;12783;48.824;8.662;2024-03-08T12:18:34;22.40;;;11.30;;
24650;SDS011;12783;48.824;8.662;2024-03-08T12:21:08;25.13;;;12.10;;
24650;SDS011;12783;48.824;8.662;2024-03-08T12:23:48;19.90;;;10.38;;
24650;SDS011;12783;48.824;8.662;2024-03-08T12:26:35;22.42;;;11.00;;
24650;SDS011;12783;48.824;8.662;2024-03-08T12:31:51;20.58;;;11.35;;
24650;SDS011;12783;48.824;8.662;2024-03-08T12:34:22;23.42;;;11.65;;
24650;SDS011;12783;48.824;8.662;2024-03-08T12:36:49;22.15;;;11.00;;
24650;SDS011;12783;48.824;8.662;2024-03-08T12:39:20;22.67;;;11.50;;
24650;SDS011;12783;48.824;8.662;2024-03-08T12:41:56;26.85;;;12.15;;
24650;SDS011;12783;48.824;8.662;2024-03-08T12:44:26;23.63;;;11.20;;
24650;SDS011;12783;48.824;8.662;2024-03-08T12:46:54;21.02;;;10.40;;
24650;SDS011;12783;48.824;8.662;2024-03-08T12:49:21;21.73;;;11.02;;
24650;SDS011;12783;48.824;8.662;2024-03-08T12:51:49;21.10;;;10.75;;
24650;SDS011;12783;48.824;8.662;2024-03-08T12:54:16;23.88;;;11.45;;
24650;SDS011;12783;48.824;8.662;2024-03-08T12:56:43;19.60;;;10.65;;
24650;SDS011;12783;48.824;8.662;2024-03-08T12:59:10;21.88;;;10.77;;
24650;SDS011;12783;48.824;8.662;2024-03-08T13:01:38;19.13;;;10.18;;
24650;SDS011;12783;48.824;8.662;2024-03-08T13:04:06;23.50;;;10.98;;
24650;SDS011;12783;48.824;8.662;2024-03-08T13:06:35;20.70;;;10.30;;
24650;SDS011;12783;48.824;8.662;2024-03-08T13:09:01;20.10;;;10.43;;
24650;SDS011;12783;48.824;8.662;2024-03-08T13:11:32;19.77;;;10.77;;
24650;SDS011;12783;48.824;8.662;2024-03-08T13:14:03;21.42;;;11.45;;
24650;SDS011;12783;48.824;8.662;2024-03-08T13:16:34;22.27;;;11.43;;
24650;SDS011;12783;48.824;8.662;2024-03-08T13:19:01;19.95;;;10.80;;
24650;SDS011;12783;48.824;8.662;2024-03-08T13:21:28;18.50;;;10.07;;
24650;SDS011;12783;48.824;8.662;2024-03-08T13:23:56;21.58;;;10.52;;
24650;SDS011;12783;48.824;8.662;2024-03-08T13:26:25;19.58;;;10.60;;
24650;SDS011;12783;48.824;8.662;2024-03-08T13:28:57;22.52;;;11.23;;
24650;SDS011;12783;48.824;8.662;2024-03-08T13:31:25;22.83;;;11.18;;
24650;SDS011;12783;48.824;8.662;2024-03-08T13:33:52;25.20;;;11.13;;
24650;SDS011;12783;48.824;8.662;2024-03-08T13:36:24;21.90;;;10.70;;
24650;SDS011;12783;48.824;8.662;2024-03-08T13:38:55;21.27;;;10.65;;
24650;SDS011;12783;48.824;8.662;2024-03-08T13:41:26;27.80;;;10.88;;
24650;SDS011;12783;48.824;8.662;2024-03-08T13:43:55;20.15;;;10.35;;
24650;SDS011;12783;48.824;8.662;2024-03-08T13:46:23;24.00;;;10.88;;
24650;SDS011;12783;48.824;8.662;2024-03-08T13:48:50;25.55;;;10.32;;
24650;SDS011;12783;48.824;8.662;2024-03-08T13:51:19;25.83;;;11.40;;
24650;SDS011;12783;48.824;8.662;2024-03-08T13:53:49;24.85;;;10.65;;
24650;SDS011;12783;48.824;8.662;2024-03-08T13:56:16;21.50;;;11.50;;
24650;SDS011;12783;48.824;8.662;2024-03-08T13:58:43;20.38;;;10.73;;
24650;SDS011;12783;48.824;8.662;2024-03-08T14:01:10;22.13;;;10.93;;
24650;SDS011;12783;48.824;8.662;2024-03-08T14:03:38;22.48;;;11.00;;
24650;SDS011;12783;48.824;8.662;2024-03-08T14:06:08;20.45;;;10.93;;
24650;SDS011;12783;48.824;8.662;2024-03-08T14:08:36;22.80;;;10.73;;
24650;SDS011;12783;48.824;8.662;2024-03-08T14:11:06;21.27;;;10.73;;
24650;SDS011;12783;48.824;8.662;2024-03-08T14:13:42;20.23;;;10.48;;
24650;SDS011;12783;48.824;8.662;2024-03-08T14:16:13;23.20;;;11.45;;
24650;SDS011;12783;48.824;8.662;2024-03-08T14:18:40;22.75;;;11.65;;
24650;SDS011;12783;48.824;8.662;2024-03-08T14:21:08;23.23;;;11.57;;
24650;SDS011;12783;48.824;8.662;2024-03-08T14:23:35;19.25;;;10.38;;
24650;SDS011;12783;48.824;8.662;2024-03-08T14:26:05;22.52;;;11.02;;
24650;SDS011;12783;48.824;8.662;2024-03-08T14:28:34;21.58;;;11.18;;
24650;SDS011;12783;48.824;8.662;2024-03-08T14:31:02;20.17;;;9.82;;
24650;SDS011;12783;48.824;8.662;2024-03-08T14:33:32;20.50;;;10.40;;
24650;SDS011;12783;48.824;8.662;2024-03-08T14:35:59;26.88;;;11.25;;
24650;SDS011;12783;48.824;8.662;2024-03-08T14:38:27;22.77;;;10.88;;
24650;SDS011;12783;48.824;8.662;2024-03-08T14:40:54;22.48;;;10.43;;
24650;SDS011;12783;48.824;8.662;2024-03-08T14:43:21;23.42;;;11.15;;